Time;durP1;ratioP1;P1;durP2;ratioP2;P2;SDS_P1;SDS_P2;PMS_P1;PMS_P2;Temp;Humidity;BMP_temperature;BMP_pressure;BME280_temperature;BME280_humidity;BME280_pressure;Samples;Min_cycle;Max_cycle;Signal;HPM_P1;HPM_P2
2023/06/06 00:00:08;;;;;;;4.93;2.25;;;17.50;92.70;;;;;;4835777;29;20034;-71
2023/06/06 05:01:15;;;;;;;9.65;4.50;;;15.90;99.90;;;;;;5909358;23;20019;31
2023/06/06 05:03:41;;;;;;;8.25;4.38;;;16.00;99.90;;;;;;4886304;29;20056;-74
2023/06/06 05:06:07;;;;;;;9.32;4.82;;;16.00;99.90;;;;;;4889652;29;20104;-74
2023/06/06 05:08:40;;;;;;;8.45;4.40;;;16.10;99.90;;;;;;4889829;29;20032;-71
2023/06/06 05:11:07;;;;;;;10.23;4.80;;;16.20;99.90;;;;;;4889599;29;20037;-72
2023/06/06 05:13:32;;;;;;;8.85;5.20;;;16.20;99.90;;;;;;4873080;29;20037;-72
2023/06/06 05:15:58;;;;;;;6.45;3.80;;;16.30;99.90;;;;;;4889274;29;20069;-72
2023/06/06 05:18:24;;;;;;;12.05;3.90;;;16.30;99.90;;;;;;4889368;29;20076;-73
2023/06/06 05:20:50;;;;;;;10.90;4.32;;;16.40;99.90;;;;;;4889059;29;20088;-71
2023/06/06 05:23:16;;;;;;;6.80;3.58;;;16.40;99.90;;;;;;4889635;29;20060;-73
2023/06/06 05:25:41;;;;;;;8.07;3.78;;;16.40;99.90;;;;;;4889091;29;20045;-74
2023/06/06 05:28:07;;;;;;;6.07;3.20;;;16.50;99.30;;;;;;4889588;29;20092;-73
2023/06/06 05:30:33;;;;;;;6.53;3.60;;;16.60;99.30;;;;;;4889274;29;20148;-72
2023/06/06 05:32:58;;;;;;;7.65;3.22;;;16.60;99.00;;;;;;4888835;29;20021;-74
2023/06/06 05:35:24;;;;;;;7.82;3.20;;;16.70;98.40;;;;;;4888589;29;20036;-74
2023/06/06 05:37:50;;;;;;;8.60;3.90;;;16.70;98.10;;;;;;4889001;29;20025;-73
2023/06/06 05:40:16;;;;;;;10.98;4.93;;;16.80;98.00;;;;;;4888282;29;20095;-73
2023/06/06 05:42:41;;;;;;;8.85;3.63;;;16.90;97.60;;;;;;4872452;29;20048;-73
2023/06/06 05:45:07;;;;;;;6.53;3.47;;;16.90;97.30;;;;;;4889782;29;20040;-72
2023/06/06 05:47:33;;;;;;;8.48;3.58;;;16.90;97.00;;;;;;4889269;29;20065;-73
2023/06/06 05:49:59;;;;;;;5.93;3.65;;;16.90;97.00;;;;;;4888765;29;20091;-73
2023/06/06 05:52:24;;;;;;;5.30;3.33;;;16.90;96.60;;;;;;4889288;29;20105;-73
2023/06/06 05:54:55;;;;;;;6.28;3.47;;;17.00;95.90;;;;;;4888696;29;20311;-73
2023/06/06 05:57:22;;;;;;;6.85;3.53;;;17.20;95.80;;;;;;4889041;29;20223;-73
2023/06/06 05:59:48;;;;;;;5.82;3.90;;;17.30;95.80;;;;;;4888603;29;20047;-74
2023/06/06 06:02:14;;;;;;;7.78;4.28;;;17.40;95.30;;;;;;4868946;29;20045;-73
2023/06/06 06:04:42;;;;;;;6.35;3.60;;;17.50;94.70;;;;;;4868702;29;20045;-74
2023/06/06 06:07:08;;;;;;;7.57;3.80;;;17.50;94.40;;;;;;4870188;29;20049;-73
2023/06/06 06:09:35;;;;;;;7.68;3.72;;;17.60;94.10;;;;;;4870582;29;20089;-73
2023/06/06 06:12:01;;;;;;;8.45;4.03;;;17.70;93.90;;;;;;4869824;29;20052;-74
2023/06/06 06:14:26;;;;;;;5.55;3.20;;;17.90;93.50;;;;;;4870215;29;20092;-73
2023/06/06 06:16:52;;;;;;;7.75;3.35;;;18.00;93.00;;;;;;4868585;29;20037;-72
2023/06/06 06:19:18;;;;;;;7.03;3.33;;;18.00;92.70;;;;;;4870412;29;20088;-73
2023/06/06 06:21:43;;;;;;;5.93;2.90;;;18.10;92.20;;;;;;4868434;29;20045;-72
2023/06/06 06:24:09;;;;;;;5.13;3.05;;;18.10;91.90;;;;;;4869280;29;20211;-73
2023/06/06 06:26:35;;;;;;;6.38;3.60;;;18.20;91.80;;;;;;4870403;29;20160;-72
2023/06/06 06:29:00;;;;;;;7.30;3.80;;;18.40;91.80;;;;;;4869708;29;20036;-74
2023/06/06 06:31:27;;;;;;;6.07;3.35;;;18.60;91.50;;;;;;4869943;29;20052;-72
2023/06/06 06:33:53;;;;;;;6.40;2.97;;;18.70;90.60;;;;;;4869863;29;20044;-73
2023/06/06 06:36:20;;;;;;;7.32;3.30;;;18.80;90.90;;;;;;4869790;29;20033;-73
2023/06/06 06:38:46;;;;;;;4.85;2.95;;;18.90;90.30;;;;;;4869605;29;20029;-72
2023/06/06 06:41:12;;;;;;;4.10;3.00;;;19.00;89.70;;;;;;4870037;29;20341;-71
2023/06/06 06:43:38;;;;;;;4.95;2.90;;;19.10;88.90;;;;;;4870060;29;20037;-73
2023/06/06 06:46:12;;;;;;;6.25;3.83;;;19.10;88.40;;;;;;4869474;29;20101;-71
2023/06/06 06:48:39;;;;;;;5.63;3.45;;;19.20;88.10;;;;;;4873547;29;20068;-73
2023/06/06 06:51:05;;;;;;;5.40;3.60;;;19.30;87.30;;;;;;4873090;29;20033;-72
2023/06/06 06:53:31;;;;;;;4.45;3.10;;;19.30;86.70;;;;;;4873669;29;20199;-73
2023/06/06 06:55:57;;;;;;;5.22;2.78;;;19.30;86.80;;;;;;4872687;29;20042;-72
2023/06/06 06:58:25;;;;;;;8.52;3.60;;;19.50;86.90;;;;;;4856962;29;20322;-72
2023/06/06 07:00:53;;;;;;;5.00;3.30;;;19.60;85.20;;;;;;4872958;29;20114;-72
2023/06/06 07:03:19;;;;;;;7.03;3.25;;;19.70;85.10;;;;;;4886733;29;20053;-74
2023/06/06 07:05:44;;;;;;;5.40;3.20;;;19.80;84.50;;;;;;4891232;29;20275;-72
2023/06/06 07:08:10;;;;;;;4.88;2.78;;;19.70;83.50;;;;;;4873097;29;20040;-72
2023/06/06 07:10:36;;;;;;;5.20;3.28;;;19.80;83.70;;;;;;4891547;29;20040;-73
2023/06/06 07:13:01;;;;;;;4.80;2.97;;;20.00;83.60;;;;;;4891394;29;20037;-71
2023/06/06 07:15:29;;;;;;;7.40;3.40;;;20.00;82.80;;;;;;4875487;29;20037;-70
2023/06/06 07:17:55;;;;;;;9.13;3.10;;;20.20;83.20;;;;;;4891078;29;20314;-74
2023/06/06 07:20:23;;;;;;;7.07;3.50;;;20.20;82.90;;;;;;4891730;29;20051;-73
2023/06/06 07:22:53;;;;;;;4.35;2.30;;;20.50;81.70;;;;;;4891081;29;20021;-72
2023/06/06 07:25:19;;;;;;;4.03;2.60;;;20.60;79.40;;;;;;4891782;29;20057;-73
2023/06/06 07:27:45;;;;;;;5.07;2.75;;;20.60;79.50;;;;;;4891141;29;20124;-72
2023/06/06 07:30:14;;;;;;;5.40;2.97;;;20.60;78.30;;;;;;4875538;29;20041;-73
2023/06/06 07:32:41;;;;;;;4.97;3.40;;;20.70;78.80;;;;;;4892742;29;20032;-75
2023/06/06 07:35:12;;;;;;;5.63;2.88;;;20.80;78.80;;;;;;4891870;29;20251;-74
2023/06/06 07:37:38;;;;;;;6.25;3.45;;;20.90;78.20;;;;;;4892590;29;20104;-73
2023/06/06 07:40:07;;;;;;;5.07;2.95;;;20.90;77.70;;;;;;4890758;29;20063;-73
2023/06/06 07:42:34;;;;;;;4.63;2.72;;;21.00;76.60;;;;;;4891139;29;20037;-73
2023/06/06 07:45:00;;;;;;;7.45;2.47;;;21.10;76.60;;;;;;4890793;29;20031;-74
2023/06/06 07:47:27;;;;;;;3.22;2.30;;;21.20;75.90;;;;;;4891430;29;20222;-74
2023/06/06 07:49:52;;;;;;;10.63;3.53;;;21.30;75.30;;;;;;4890463;29;20080;-74
2023/06/06 07:52:18;;;;;;;4.05;2.67;;;21.50;75.50;;;;;;4891351;29;20303;-73
2023/06/06 07:54:44;;;;;;;4.18;2.55;;;21.40;74.10;;;;;;4890841;29;20033;-75
2023/06/06 07:57:11;;;;;;;6.15;3.00;;;21.30;74.10;;;;;;4890854;29;20032;-73
2023/06/06 07:59:38;;;;;;;4.50;2.50;;;21.40;74.50;;;;;;4890620;29;20044;-72
2023/06/06 08:02:04;;;;;;;3.95;2.60;;;21.50;75.10;;;;;;4889840;29;20053;-71
2023/06/06 08:04:29;;;;;;;4.47;2.88;;;21.70;75.00;;;;;;4891025;29;20302;-71
2023/06/06 08:06:55;;;;;;;4.40;2.67;;;21.80;74.40;;;;;;4890593;29;20081;-72
2023/06/06 08:09:22;;;;;;;4.95;2.90;;;21.90;75.00;;;;;;4890890;29;20037;-71
2023/06/06 08:11:47;;;;;;;5.10;2.75;;;21.90;75.70;;;;;;4889994;29;20048;-72
2023/06/06 08:14:13;;;;;;;6.35;2.60;;;22.00;74.80;;;;;;4890478;29;20367;-71
2023/06/06 08:16:39;;;;;;;3.70;2.17;;;22.10;74.80;;;;;;4890484;29;20036;-73
2023/06/06 08:19:05;;;;;;;6.05;2.50;;;22.10;74.40;;;;;;4889745;29;20323;-74
2023/06/06 08:21:31;;;;;;;4.50;3.05;;;22.00;75.20;;;;;;4890738;29;20047;-74
2023/06/06 08:23:57;;;;;;;5.68;2.83;;;22.20;74.00;;;;;;4890188;29;20032;-74
2023/06/06 08:26:25;;;;;;;7.13;2.70;;;22.20;74.70;;;;;;4890639;29;20124;-72
2023/06/06 08:28:54;;;;;;;6.90;2.78;;;22.20;74.80;;;;;;4889725;29;20021;-71
2023/06/06 08:31:20;;;;;;;7.22;2.55;;;22.20;74.20;;;;;;4890394;29;20044;-73
2023/06/06 08:33:46;;;;;;;5.25;3.13;;;22.20;74.20;;;;;;4889900;29;20029;-71
2023/06/06 08:36:13;;;;;;;5.75;2.70;;;22.30;74.80;;;;;;4890367;29;20081;-71
2023/06/06 08:38:38;;;;;;;4.20;2.85;;;22.40;73.70;;;;;;4890013;29;20067;-71
2023/06/06 08:41:05;;;;;;;4.00;2.35;;;22.50;72.30;;;;;;4889329;29;20037;-71
2023/06/06 08:43:36;;;;;;;5.68;2.83;;;22.40;72.40;;;;;;4889906;29;20033;-71
2023/06/06 08:46:03;;;;;;;7.38;3.80;;;22.50;72.10;;;;;;4889592;29;20033;-72
2023/06/06 08:48:29;;;;;;;3.83;2.58;;;22.40;72.20;;;;;;4890033;29;20033;-70
2023/06/06 08:50:56;;;;;;;5.53;2.88;;;22.40;71.60;;;;;;4872780;29;20044;-71
2023/06/06 08:53:23;;;;;;;4.53;2.88;;;22.50;72.20;;;;;;4873572;29;20101;-72
2023/06/06 08:55:49;;;;;;;5.07;2.63;;;22.60;71.50;;;;;;4889039;29;20088;-72
2023/06/06 08:58:16;;;;;;;4.28;2.72;;;22.60;71.90;;;;;;4873021;29;20044;-71
2023/06/06 09:00:42;;;;;;;9.73;2.70;;;22.70;72.50;;;;;;4889874;29;20047;-71
2023/06/06 09:03:12;;;;;;;4.07;2.63;;;22.80;72.10;;;;;;4888727;29;20080;-73
2023/06/06 09:05:38;;;;;;;5.07;2.78;;;22.90;70.80;;;;;;4890181;29;20057;-70
2023/06/06 09:08:06;;;;;;;6.22;3.17;;;22.60;71.10;;;;;;4889158;29;20289;-72
2023/06/06 09:10:32;;;;;;;5.20;2.65;;;22.80;71.50;;;;;;4888849;29;20049;-72
2023/06/06 09:12:58;;;;;;;4.85;2.72;;;23.00;70.00;;;;;;4888670;29;20157;-71
2023/06/06 09:15:25;;;;;;;5.55;2.83;;;23.20;69.10;;;;;;4889422;29;20033;-72
2023/06/06 09:17:55;;;;;;;4.63;2.58;;;23.20;68.30;;;;;;4888727;29;20060;-71
2023/06/06 09:20:22;;;;;;;6.45;2.88;;;23.40;68.10;;;;;;4889634;29;20037;-71
2023/06/06 09:22:49;;;;;;;3.60;2.50;;;23.40;68.10;;;;;;4889513;29;20056;-74
2023/06/06 09:25:26;;;;;;;4.25;2.72;;;23.40;67.80;;;;;;4889111;29;20455;-71
2023/06/06 09:28:09;;;;;;;4.28;2.60;;;23.30;67.70;;;;;;4888770;29;20053;-73
2023/06/06 09:30:35;;;;;;;5.57;2.47;;;23.30;67.90;;;;;;4889624;29;20108;-74
2023/06/06 09:33:04;;;;;;;6.18;3.13;;;23.50;67.90;;;;;;4888546;29;20041;-72
2023/06/06 09:35:33;;;;;;;;;;;23.60;67.50;;;;;;4890007;29;20061;-74
2023/06/06 09:38:10;;;;;;;4.30;2.50;;;23.60;67.20;;;;;;4888970;29;19908;-72
2023/06/06 09:40:50;;;;;;;4.90;2.55;;;23.70;66.50;;;;;;4889178;29;20041;-73
2023/06/06 09:43:22;;;;;;;11.30;3.50;;;23.90;65.20;;;;;;4888904;29;20303;-72
2023/06/06 09:45:52;;;;;;;4.65;3.00;;;24.00;64.20;;;;;;4889074;29;20084;-72
2023/06/06 09:48:22;;;;;;;7.10;2.75;;;24.20;63.90;;;;;;4888812;29;20037;-71
2023/06/06 09:50:49;;;;;;;5.25;2.72;;;24.30;63.00;;;;;;4888881;29;20260;-72
2023/06/06 09:53:15;;;;;;;4.43;2.78;;;24.40;63.20;;;;;;4888267;29;20033;-72
2023/06/06 09:55:42;;;;;;;6.05;2.95;;;24.30;63.50;;;;;;4889158;29;20037;-73
2023/06/06 09:58:17;;;;;;;6.43;2.80;;;24.40;63.70;;;;;;4871931;29;20037;-72
2023/06/06 10:00:46;;;;;;;4.65;2.30;;;24.40;63.50;;;;;;4889022;29;20399;-72
2023/06/06 10:03:18;;;;;;;5.68;2.90;;;24.50;63.10;;;;;;4887863;29;20080;-71
2023/06/06 10:05:51;;;;;;;7.97;3.63;;;24.60;62.80;;;;;;4889067;29;20356;-71
2023/06/06 10:08:19;;;;;;;16.60;3.90;;;24.50;63.30;;;;;;4889042;29;20104;-74
2023/06/06 10:10:48;;;;;;;9.57;3.83;;;24.60;62.90;;;;;;4888983;29;20275;-73
2023/06/06 10:13:22;;;;;;;7.30;2.90;;;24.70;62.10;;;;;;4871709;29;20807;-71
2023/06/06 10:15:49;;;;;;;6.28;3.10;;;24.70;61.70;;;;;;4889088;29;20317;-73
2023/06/06 10:18:16;;;;;;;4.53;2.70;;;24.80;62.30;;;;;;4888159;29;20108;-73
2023/06/06 10:20:44;;;;;;;5.20;2.47;;;24.90;63.00;;;;;;4888543;29;20025;-73
2023/06/06 10:23:10;;;;;;;4.45;2.45;;;24.90;63.00;;;;;;4891950;29;20346;-73
2023/06/06 10:25:37;;;;;;;4.00;2.50;;;25.00;62.40;;;;;;4892574;29;20025;-74
2023/06/06 10:28:19;;;;;;;3.85;2.72;;;25.00;62.80;;;;;;4892301;29;20100;-73
2023/06/06 10:31:03;;;;;;;7.10;3.08;;;25.10;62.50;;;;;;4892524;29;20056;-73
2023/06/06 10:33:54;;;;;;;4.53;2.80;;;25.00;62.10;;;;;;4892748;29;20037;-73
2023/06/06 10:36:20;;;;;;;4.50;2.80;;;25.00;61.60;;;;;;4892463;29;20111;-72
2023/06/06 10:39:20;;;;;;;3.80;2.17;;;25.10;61.80;;;;;;4892527;29;20033;-73
2023/06/06 10:41:59;;;;;;;3.83;2.40;;;25.10;61.90;;;;;;4892569;29;20065;-72
2023/06/06 10:44:43;;;;;;;4.78;2.50;;;25.40;61.20;;;;;;4892634;29;20037;-73
2023/06/06 10:47:24;;;;;;;6.38;2.38;;;25.60;59.90;;;;;;4891884;29;20080;-73
2023/06/06 10:50:11;;;;;;;5.18;2.70;;;25.70;59.80;;;;;;4892141;29;20100;-73
2023/06/06 10:52:58;;;;;;;5.10;2.95;;;25.90;60.30;;;;;;4892386;29;20033;-72
2023/06/06 10:55:24;;;;;;;4.63;2.72;;;26.10;60.60;;;;;;4892399;29;20048;-72
2023/06/06 10:58:15;;;;;;;5.30;2.50;;;26.30;60.00;;;;;;4892047;29;20036;-73
2023/06/06 11:00:42;;;;;;;4.80;2.50;;;26.30;59.30;;;;;;4891965;29;20270;-73
2023/06/06 11:03:13;;;;;;;6.20;2.70;;;26.30;58.90;;;;;;4890996;29;20350;-74
2023/06/06 11:06:01;;;;;;;4.88;2.25;;;26.50;59.50;;;;;;4891806;29;20024;-75
2023/06/06 11:08:53;;;;;;;3.80;2.70;;;26.70;58.80;;;;;;4892047;29;20029;-72
2023/06/06 11:11:34;;;;;;;5.18;2.58;;;26.60;58.10;;;;;;4882989;29;20246;-72
2023/06/06 11:14:02;;;;;;;7.65;4.20;;;27.00;58.20;;;;;;4891338;29;20076;-73
2023/06/06 11:16:40;;;;;;;3.58;2.60;;;27.40;58.00;;;;;;4891951;29;20037;-73
2023/06/06 11:19:11;;;;;;;4.85;2.83;;;27.60;56.00;;;;;;4891428;29;20029;-72
2023/06/06 11:21:43;;;;;;;6.05;2.38;;;27.50;56.00;;;;;;4891705;29;20045;-71
2023/06/06 11:24:10;;;;;;;6.00;4.35;;;27.40;55.40;;;;;;4891163;29;20040;-73
2023/06/06 11:26:37;;;;;;;6.07;2.90;;;27.20;56.40;;;;;;4891492;29;20060;-72
2023/06/06 11:29:05;;;;;;;5.38;2.67;;;27.00;57.70;;;;;;4891094;29;20033;-72
2023/06/06 11:31:32;;;;;;;4.25;2.90;;;26.70;58.10;;;;;;4875322;29;20353;-72
2023/06/06 11:34:14;;;;;;;5.97;2.65;;;26.50;58.30;;;;;;4890056;29;20037;-72
2023/06/06 11:36:41;;;;;;;4.85;2.40;;;26.70;57.60;;;;;;4891533;29;20041;-72
2023/06/06 11:39:11;;;;;;;6.03;3.00;;;27.50;56.50;;;;;;4890875;29;20047;-73
2023/06/06 11:41:44;;;;;;;5.13;3.05;;;28.40;55.60;;;;;;4891229;29;20224;-72
2023/06/06 11:44:10;;;;;;;5.22;2.70;;;28.90;53.50;;;;;;4890829;29;20025;-73
2023/06/06 11:46:52;;;;;;;4.82;2.50;;;28.60;52.70;;;;;;4891251;29;20044;-73
2023/06/06 11:49:22;;;;;;;5.30;3.00;;;28.50;53.20;;;;;;4890516;29;20104;-75
2023/06/06 11:51:58;;;;;;;3.72;2.28;;;30.00;53.30;;;;;;4890883;29;20103;-72
2023/06/06 11:54:26;;;;;;;5.57;2.92;;;30.80;52.00;;;;;;4891063;29;20107;-73
2023/06/06 11:56:52;;;;;;;5.07;2.60;;;30.50;52.60;;;;;;4890852;29;20222;-72
2023/06/06 11:59:19;;;;;;;4.03;2.80;;;29.90;52.80;;;;;;4890406;29;20049;-72
2023/06/06 12:01:57;;;;;;;3.40;2.50;;;29.20;52.00;;;;;;4873798;29;20248;-72
2023/06/06 12:04:26;;;;;;;4.75;2.55;;;28.40;52.70;;;;;;4890361;29;20100;-73
2023/06/06 12:07:03;;;;;;;3.40;2.17;;;27.90;52.90;;;;;;4891081;29;20032;-74
2023/06/06 12:09:29;;;;;;;4.50;2.58;;;27.40;53.60;;;;;;4890568;29;20041;-74
2023/06/06 12:12:02;;;;;;;4.35;2.85;;;27.90;53.20;;;;;;4874436;29;20255;-72
2023/06/06 12:14:29;;;;;;;5.88;2.55;;;29.10;52.80;;;;;;4890825;29;20240;-73
2023/06/06 12:17:03;;;;;;;3.78;2.65;;;29.30;52.30;;;;;;4890755;29;20044;-73
2023/06/06 12:19:29;;;;;;;5.00;2.50;;;29.80;52.80;;;;;;4890825;29;20028;-73
2023/06/06 12:21:55;;;;;;;5.53;2.50;;;31.40;50.50;;;;;;4890709;29;20333;-73
2023/06/06 12:24:22;;;;;;;6.22;2.65;;;33.00;50.00;;;;;;4890158;29;20041;-74
2023/06/06 12:26:53;;;;;;;4.65;2.30;;;33.60;48.00;;;;;;4890627;29;20097;-74
2023/06/06 12:29:20;;;;;;;6.25;2.45;;;32.80;48.60;;;;;;4890192;29;20314;-74
2023/06/06 12:31:49;;;;;;;5.15;2.47;;;32.20;49.00;;;;;;4890417;29;20045;-75
2023/06/06 12:34:15;;;;;;;5.25;2.60;;;31.10;49.60;;;;;;4889943;29;20032;-74
2023/06/06 12:36:42;;;;;;;5.13;2.50;;;30.10;49.70;;;;;;4890328;29;20037;-72
2023/06/06 12:39:12;;;;;;;5.25;2.58;;;30.40;50.00;;;;;;4889620;29;20032;-72
2023/06/06 12:41:42;;;;;;;4.03;2.40;;;30.40;50.50;;;;;;4890514;29;20113;-72
2023/06/06 12:44:15;;;;;;;5.63;2.28;;;30.30;51.70;;;;;;4889406;29;20032;-73
2023/06/06 12:46:44;;;;;;;3.78;2.28;;;31.90;50.20;;;;;;4890481;29;20037;-74
2023/06/06 12:49:10;;;;;;;4.55;2.38;;;34.40;48.60;;;;;;4891440;29;20096;-74
2023/06/06 12:51:39;;;;;;;4.15;2.17;;;35.90;46.40;;;;;;4892561;29;20048;-75
2023/06/06 12:54:05;;;;;;;4.63;2.08;;;35.10;45.50;;;;;;4890312;29;20056;-75
2023/06/06 12:56:31;;;;;;;5.63;2.55;;;34.70;45.60;;;;;;4889869;29;20037;-73
2023/06/06 12:58:59;;;;;;;5.55;2.50;;;35.00;45.70;;;;;;4890121;29;20024;-73
2023/06/06 13:01:26;;;;;;;6.40;5.75;;;35.70;45.00;;;;;;4889070;29;20348;-74
2023/06/06 13:03:52;;;;;;;7.45;4.53;;;36.40;44.60;;;;;;4889579;29;20342;-73
2023/06/06 13:06:19;;;;;;;4.03;2.25;;;37.70;43.80;;;;;;4889456;29;20025;-72
2023/06/06 13:08:45;;;;;;;5.30;2.30;;;38.70;43.10;;;;;;4889788;29;20085;-72
2023/06/06 13:11:11;;;;;;;3.08;2.08;;;39.50;42.90;;;;;;4889496;29;20041;-72
2023/06/06 13:13:38;;;;;;;3.90;2.20;;;40.20;42.00;;;;;;4889953;29;20040;-72
2023/06/06 13:16:04;;;;;;;5.70;2.10;;;40.50;41.80;;;;;;4889042;29;20037;-72
2023/06/06 13:18:29;;;;;;;6.88;4.88;;;40.10;41.90;;;;;;4889995;29;20017;-72
2023/06/06 13:20:58;;;;;;;5.68;2.45;;;40.60;41.80;;;;;;4889805;29;20080;-71
2023/06/06 13:23:26;;;;;;;4.10;2.72;;;41.20;41.40;;;;;;4889152;29;20319;-75
2023/06/06 13:25:55;;;;;;;2.97;1.92;;;41.10;41.30;;;;;;4889603;29;20033;-72
2023/06/06 13:28:21;;;;;;;5.47;2.50;;;39.80;41.60;;;;;;4888852;29;20033;-74
2023/06/06 13:30:47;;;;;;;5.55;2.22;;;40.50;42.00;;;;;;4889769;29;20059;-74
2023/06/06 13:33:12;;;;;;;6.53;2.95;;;41.50;40.90;;;;;;4889183;29;20354;-74
2023/06/06 13:35:38;;;;;;;4.22;2.50;;;41.10;40.70;;;;;;4889559;29;20029;-72
2023/06/06 13:38:05;;;;;;;3.40;2.05;;;40.50;40.80;;;;;;4889256;29;20334;-75
2023/06/06 13:40:30;;;;;;;3.13;2.17;;;40.90;40.00;;;;;;4889316;29;20109;-73
2023/06/06 13:42:56;;;;;;;4.85;2.80;;;40.50;39.90;;;;;;4889375;29;20025;-73
2023/06/06 13:45:22;;;;;;;6.88;2.53;;;39.00;41.20;;;;;;4888531;29;20037;-74
2023/06/06 13:47:48;;;;;;;3.80;2.00;;;38.50;41.60;;;;;;4889250;29;20024;-73
2023/06/06 13:50:14;;;;;;;3.90;2.40;;;37.60;42.00;;;;;;4888505;29;20156;-72
2023/06/06 13:52:42;;;;;;;4.95;2.50;;;36.70;42.80;;;;;;4889380;29;20329;-73
2023/06/06 13:55:08;;;;;;;3.40;2.35;;;35.50;43.70;;;;;;4888455;29;20036;-72
2023/06/06 13:57:40;;;;;;;4.30;2.38;;;34.40;45.30;;;;;;4888622;29;20041;-72
2023/06/06 14:00:08;;;;;;;4.82;2.42;;;36.00;45.10;;;;;;4888304;29;20100;-73
2023/06/06 14:02:34;;;;;;;4.85;2.50;;;37.60;42.70;;;;;;4888511;29;20067;-73
2023/06/06 14:05:00;;;;;;;4.43;2.45;;;37.60;42.60;;;;;;4889077;29;20033;-73
2023/06/06 14:07:26;;;;;;;4.47;2.30;;;35.60;43.60;;;;;;4888296;29;20271;-72
2023/06/06 14:09:51;;;;;;;5.03;2.58;;;34.20;45.40;;;;;;4888876;29;20366;-72
2023/06/06 14:12:17;;;;;;;4.75;2.30;;;32.80;45.50;;;;;;4888143;29;20323;-72
2023/06/06 14:14:43;;;;;;;5.85;2.47;;;32.00;46.80;;;;;;4888907;29;20038;-71
2023/06/06 14:17:08;;;;;;;3.70;2.30;;;31.30;47.50;;;;;;4888216;29;20039;-72
2023/06/06 14:19:38;;;;;;;3.35;2.20;;;31.70;47.40;;;;;;4889247;29;20148;-71
2023/06/06 14:22:24;;;;;;;6.25;2.40;;;33.40;45.80;;;;;;4888964;29;20049;-73
2023/06/06 14:24:51;;;;;;;4.55;2.28;;;35.90;44.10;;;;;;4888885;29;20041;-73
2023/06/06 14:27:17;;;;;;;4.55;2.17;;;36.70;43.20;;;;;;4888481;29;20037;-72
2023/06/06 14:29:45;;;;;;;6.00;1.95;;;36.80;42.70;;;;;;4888707;29;20025;-73
2023/06/06 14:32:11;;;;;;;4.90;2.10;;;38.40;42.40;;;;;;4888060;29;20163;-72
2023/06/06 14:34:38;;;;;;;6.97;1.92;;;38.10;42.00;;;;;;4888470;29;20055;-72
2023/06/06 14:37:04;;;;;;;6.40;1.90;;;38.70;41.70;;;;;;4888805;29;20043;-73
2023/06/06 14:39:30;;;;;;;4.43;2.00;;;38.80;41.60;;;;;;4887940;29;20052;-73
2023/06/06 14:41:55;;;;;;;6.25;1.80;;;37.30;42.30;;;;;;4888867;29;20045;-74
2023/06/06 14:44:22;;;;;;;3.28;1.58;;;35.80;42.90;;;;;;4888329;29;20029;-73
2023/06/06 14:46:48;;;;;;;6.63;2.17;;;34.60;43.50;;;;;;4888558;29;20109;-74
2023/06/06 14:49:14;;;;;;;4.57;2.03;;;33.10;45.30;;;;;;4887836;29;20033;-73
2023/06/06 14:51:40;;;;;;;7.32;2.38;;;32.50;45.50;;;;;;4888458;29;20037;-72
2023/06/06 14:54:05;;;;;;;5.15;2.40;;;31.70;46.30;;;;;;4888680;29;20037;-73
2023/06/06 14:56:31;;;;;;;4.20;2.20;;;32.80;45.80;;;;;;4887850;29;20081;-74
2023/06/06 14:58:57;;;;;;;6.00;2.30;;;34.70;44.10;;;;;;4888792;29;20041;-74
2023/06/06 15:01:23;;;;;;;4.15;1.80;;;36.00;42.80;;;;;;4887899;29;20064;-73
2023/06/06 15:03:51;;;;;;;3.88;1.77;;;37.70;42.40;;;;;;4888587;29;20064;-75
2023/06/06 15:06:19;;;;;;;4.25;2.00;;;38.90;40.60;;;;;;4887837;29;20036;-73
2023/06/06 15:08:45;;;;;;;5.15;1.85;;;39.90;40.00;;;;;;4890970;29;20132;-74
2023/06/06 15:11:11;;;;;;;3.75;1.85;;;39.20;39.70;;;;;;4891056;29;20113;-73
2023/06/06 15:13:37;;;;;;;3.63;2.10;;;38.90;40.10;;;;;;4892139;29;20029;-72
2023/06/06 15:16:08;;;;;;;4.07;1.75;;;39.30;40.30;;;;;;4891958;29;20056;-73
2023/06/06 15:18:37;;;;;;;5.82;1.60;;;40.20;39.20;;;;;;4891405;29;20199;-74
2023/06/06 15:21:03;;;;;;;4.50;1.73;;;40.80;39.30;;;;;;4891799;29;20040;-74
2023/06/06 15:23:30;;;;;;;5.00;2.00;;;41.30;39.10;;;;;;4891327;29;20033;-73
2023/06/06 15:25:56;;;;;;;3.40;1.40;;;41.40;38.60;;;;;;4891878;29;20311;-73
2023/06/06 15:28:23;;;;;;;6.07;1.70;;;39.60;39.00;;;;;;4891193;29;20315;-73
2023/06/06 15:30:49;;;;;;;3.17;1.77;;;37.80;39.90;;;;;;4891845;29;20244;-73
2023/06/06 15:33:15;;;;;;;5.07;1.83;;;36.00;41.40;;;;;;4891145;29;20371;-73
2023/06/06 15:35:41;;;;;;;3.08;1.85;;;34.60;42.50;;;;;;4891487;29;20037;-73
2023/06/06 15:38:06;;;;;;;4.55;1.60;;;35.10;42.60;;;;;;4891732;29;20029;-73
2023/06/06 15:40:32;;;;;;;5.85;1.77;;;36.50;41.50;;;;;;4890700;29;20041;-72
2023/06/06 15:42:58;;;;;;;5.43;2.10;;;37.80;41.30;;;;;;4891848;29;20039;-73
2023/06/06 15:45:23;;;;;;;2.88;1.80;;;39.00;40.20;;;;;;4890739;29;20032;-72
2023/06/06 15:47:49;;;;;;;4.32;2.00;;;38.80;39.60;;;;;;4875471;29;20314;-72
2023/06/06 15:50:15;;;;;;;4.32;2.42;;;38.00;40.20;;;;;;4891953;29;20029;-73
2023/06/06 15:52:44;;;;;;;5.20;2.28;;;37.50;41.00;;;;;;4892740;29;20100;-73
2023/06/06 15:55:10;;;;;;;3.95;1.80;;;37.70;41.00;;;;;;4891029;29;20092;-74
2023/06/06 15:57:36;;;;;;;4.95;1.80;;;37.40;40.60;;;;;;4890064;29;20041;-73
2023/06/06 16:00:05;;;;;;;4.45;2.10;;;37.50;40.90;;;;;;4891088;29;20035;-73
2023/06/06 16:02:32;;;;;;;4.28;1.88;;;36.10;41.30;;;;;;4889893;29;20064;-72
2023/06/06 16:04:58;;;;;;;3.38;2.00;;;34.60;43.30;;;;;;4890931;29;20033;-74
2023/06/06 16:07:25;;;;;;;3.58;1.70;;;34.70;42.40;;;;;;4890135;29;20331;-73
2023/06/06 16:09:50;;;;;;;2.60;1.90;;;33.80;43.10;;;;;;4890878;29;20029;-73
2023/06/06 16:12:16;;;;;;;3.05;1.70;;;32.90;43.60;;;;;;4889894;29;20040;-73
2023/06/06 16:14:42;;;;;;;4.40;1.90;;;32.10;44.40;;;;;;4890880;29;20029;-73
2023/06/06 16:17:08;;;;;;;3.65;1.98;;;31.60;45.00;;;;;;4890870;29;20040;-72
2023/06/06 16:19:33;;;;;;;2.67;1.67;;;31.30;45.40;;;;;;4889689;29;20428;-72
2023/06/06 16:22:00;;;;;;;4.65;1.98;;;30.90;45.90;;;;;;4883868;29;20335;-73
2023/06/06 16:24:26;;;;;;;4.10;2.25;;;30.60;46.20;;;;;;4890099;29;20071;-71
2023/06/06 16:26:51;;;;;;;2.97;1.85;;;30.00;46.90;;;;;;4890637;29;20037;-73
2023/06/06 16:29:17;;;;;;;4.97;1.58;;;29.60;47.70;;;;;;4873585;29;20061;-73
2023/06/06 16:31:43;;;;;;;2.60;1.58;;;29.10;48.40;;;;;;4890397;29;20036;-72
2023/06/06 16:34:08;;;;;;;3.90;2.00;;;28.80;49.10;;;;;;4889373;29;20024;-72
2023/06/06 16:36:35;;;;;;;4.78;2.13;;;29.10;49.20;;;;;;4890071;29;20063;-72
2023/06/06 16:39:03;;;;;;;3.95;1.83;;;29.20;48.90;;;;;;4890572;29;20096;-73
2023/06/06 16:41:28;;;;;;;3.10;2.00;;;29.70;48.70;;;;;;4873324;29;20063;-73
2023/06/06 16:43:54;;;;;;;5.55;2.20;;;30.70;47.50;;;;;;4890407;29;20037;-72
2023/06/06 16:46:20;;;;;;;4.60;2.20;;;31.00;47.40;;;;;;4883305;29;20372;-72
2023/06/06 16:48:46;;;;;;;3.33;2.10;;;30.90;47.50;;;;;;4889996;29;20096;-74
2023/06/06 16:51:12;;;;;;;4.70;2.10;;;31.20;47.30;;;;;;4890363;29;20041;-73
2023/06/06 16:53:37;;;;;;;3.78;1.92;;;31.00;47.90;;;;;;4889430;29;20037;-73
2023/06/06 16:56:03;;;;;;;4.32;1.83;;;31.50;47.40;;;;;;4889823;29;20029;-72
2023/06/06 16:58:29;;;;;;;5.20;2.10;;;32.00;46.50;;;;;;4872954;29;20069;-73
2023/06/06 17:00:55;;;;;;;3.83;1.88;;;31.50;46.60;;;;;;4889755;29;20092;-72
2023/06/06 17:03:22;;;;;;;3.13;1.67;;;30.90;47.50;;;;;;4869313;29;20118;-73
2023/06/06 17:05:48;;;;;;;4.60;3.15;;;30.60;47.50;;;;;;4870040;29;20404;-73
2023/06/06 17:08:14;;;;;;;5.75;2.85;;;30.40;47.80;;;;;;4871482;29;20037;-72
2023/06/06 17:10:40;;;;;;;3.70;1.80;;;30.10;47.90;;;;;;4870804;29;20048;-73
2023/06/06 17:13:06;;;;;;;3.45;1.83;;;29.70;48.30;;;;;;4871047;29;20159;-72
2023/06/06 17:15:32;;;;;;;5.60;1.88;;;29.20;50.00;;;;;;4870502;29;20249;-73
2023/06/06 17:17:57;;;;;;;6.40;4.13;;;28.40;51.90;;;;;;4871259;29;20038;-74
2023/06/06 17:20:26;;;;;;;5.20;1.98;;;27.70;53.30;;;;;;4870514;29;20108;-74
2023/06/06 17:22:52;;;;;;;3.65;1.80;;;27.50;54.60;;;;;;4870994;29;20092;-72
2023/06/06 17:25:18;;;;;;;4.05;1.80;;;28.50;52.80;;;;;;4870582;29;20081;-74
2023/06/06 17:27:44;;;;;;;2.80;1.65;;;30.00;51.10;;;;;;4871117;29;20025;-72
2023/06/06 17:30:10;;;;;;;3.47;1.60;;;31.20;49.60;;;;;;4869838;29;20033;-74
2023/06/06 17:32:36;;;;;;;4.80;1.65;;;32.50;48.30;;;;;;4869406;29;20021;-72
2023/06/06 17:35:03;;;;;;;3.97;1.65;;;33.10;47.70;;;;;;4870718;29;20056;-73
2023/06/06 17:37:29;;;;;;;4.68;2.65;;;33.60;46.90;;;;;;4870332;29;20038;-74
2023/06/06 17:39:57;;;;;;;7.63;6.55;;;34.20;46.60;;;;;;4870687;29;20037;-73
2023/06/06 17:42:23;;;;;;;3.57;2.83;;;33.80;46.40;;;;;;4870263;29;20049;-75
2023/06/06 17:44:49;;;;;;;4.00;1.88;;;34.10;46.50;;;;;;4870857;29;20038;-72
2023/06/06 17:47:16;;;;;;;4.15;1.92;;;33.70;46.50;;;;;;4870531;29;20302;-73
2023/06/06 17:49:42;;;;;;;3.28;1.42;;;33.80;46.60;;;;;;4869075;29;20030;-73